createdAt,value
2022-10-03T00:02:30.470Z,77405.47
2022-10-03T00:05:14.679Z,77409.44
2022-10-03T00:07:47.192Z,77409.44
2022-10-03T00:10:31.660Z,77417.41
2022-10-03T00:13:09.550Z,77399.50
2022-10-03T00:16:13.317Z,77409.44
2022-10-03T00:18:54.014Z,77405.47
2022-10-03T00:21:39.708Z,77407.47
2022-10-03T00:24:19.948Z,77411.44
2022-10-03T00:26:58.321Z,77405.47
2022-10-03T00:29:55.979Z,77411.44
2022-10-03T00:32:34.700Z,77413.44
2022-10-03T00:35:17.651Z,77415.41
2022-10-03T00:38:16.708Z,77405.47
2022-10-03T00:41:14.002Z,77403.50
2022-10-03T00:43:56.030Z,77407.47
2022-10-03T00:46:42.260Z,77405.47
2022-10-03T00:49:36.980Z,77413.44
2022-10-03T00:52:20.220Z,77385.59
2022-10-03T00:55:18.039Z,77411.44
2022-10-03T00:58:14.843Z,77405.47
2022-10-03T01:00:49.620Z,77413.44
2022-10-03T01:03:41.668Z,77399.50
2022-10-03T01:06:12.676Z,77397.53
2022-10-03T01:09:22.908Z,77401.50
2022-10-03T01:12:14.531Z,77395.53
2022-10-03T01:14:53.476Z,77387.59
2022-10-03T01:17:57.786Z,77377.66
2022-10-03T01:20:24.183Z,77397.53
2022-10-03T01:23:14.772Z,77389.56
2022-10-03T01:26:20.261Z,77379.63
2022-10-03T01:29:31.623Z,77383.59
2022-10-03T01:32:04.112Z,77369.69
2022-10-03T01:35:08.287Z,77377.66
2022-10-03T01:38:08.895Z,77379.63
2022-10-03T01:40:54.731Z,77367.72
2022-10-03T01:43:32.284Z,77371.69
2022-10-03T01:46:09.067Z,77381.63
2022-10-03T01:48:42.747Z,77377.66
2022-10-03T01:51:20.285Z,77397.53
2022-10-03T01:54:29.511Z,77391.56
2022-10-03T01:56:55.951Z,77387.59
2022-10-03T01:59:25.083Z,77397.53
2022-10-03T02:02:01.613Z,77399.50
2022-10-03T02:04:34.151Z,77391.56
2022-10-03T02:07:26.612Z,77397.53
2022-10-03T02:10:30.816Z,77393.56
2022-10-03T02:13:24.027Z,77385.59
2022-10-03T02:15:56.490Z,77393.56
2022-10-03T02:18:51.055Z,77389.56
2022-10-03T02:21:34.346Z,77385.59
2022-10-03T02:24:15.979Z,77397.53
2022-10-03T02:27:01.151Z,77373.66
2022-10-03T02:30:05.564Z,77381.63
2022-10-03T02:32:52.027Z,77389.56
2022-10-03T02:35:50.764Z,77385.59
2022-10-03T02:38:35.251Z,77393.56
2022-10-03T02:41:32.834Z,77395.53
2022-10-03T02:44:21.587Z,77397.53
2022-10-03T02:47:25.316Z,77403.50
2022-10-03T02:50:25.764Z,77393.56
2022-10-03T02:53:08.092Z,77379.63
2022-10-03T02:55:56.158Z,77407.47
2022-10-03T02:59:01.185Z,77383.59
2022-10-03T03:01:51.594Z,77383.59
2022-10-03T03:04:56.610Z,77389.56
2022-10-03T03:07:41.905Z,77395.53
2022-10-03T03:10:11.472Z,77395.53
2022-10-03T03:13:15.319Z,77395.53
2022-10-03T03:16:33.596Z,77389.56
2022-10-03T03:19:17.876Z,77397.53
2022-10-03T03:22:33.387Z,77389.56
2022-10-03T03:25:21.766Z,77391.56
2022-10-03T03:28:03.510Z,77397.53
2022-10-03T03:30:48.547Z,77401.50
2022-10-03T03:33:27.688Z,77395.53
2022-10-03T03:35:57.671Z,77395.53
2022-10-03T03:38:35.483Z,77393.56
2022-10-03T03:41:21.466Z,77387.59
2022-10-03T03:44:09.496Z,77397.53
2022-10-03T03:46:52.088Z,77387.59
2022-10-03T03:49:46.697Z,77377.66
2022-10-03T03:52:35.805Z,77393.56
2022-10-03T03:55:40.745Z,77393.56
2022-10-03T03:58:22.724Z,77389.56
2022-10-03T04:00:56.325Z,77381.63
2022-10-03T04:03:54.105Z,77393.56
2022-10-03T04:06:23.818Z,77401.50
2022-10-03T04:09:00.775Z,77395.53
2022-10-03T04:11:39.395Z,77413.44
2022-10-03T04:14:18.949Z,77401.50
2022-10-03T04:17:13.223Z,77415.41
2022-10-03T04:20:01.291Z,77413.44
2022-10-03T04:22:53.241Z,77399.50
2022-10-03T04:25:40.979Z,77405.47
2022-10-03T04:28:34.424Z,77415.41
2022-10-03T04:31:41.298Z,77421.38
2022-10-03T04:34:31.088Z,77425.34
2022-10-03T04:37:24.350Z,77421.38
2022-10-03T04:40:15.645Z,77421.38
2022-10-03T04:43:16.756Z,77423.38
2022-10-03T04:45:46.259Z,77435.28
2022-10-03T04:48:28.972Z,77413.44
2022-10-03T04:51:26.798Z,77421.38
2022-10-03T04:54:15.407Z,77419.38
2022-10-03T04:57:06.136Z,77425.34
2022-10-03T04:59:42.629Z,77421.38
2022-10-03T05:02:34.208Z,77411.44
2022-10-03T05:05:04.603Z,77423.38
2022-10-03T05:08:01.370Z,77419.38
2022-10-03T05:10:39.207Z,77423.38
2022-10-03T05:13:16.861Z,77433.31
2022-10-03T05:16:02.440Z,77435.28
2022-10-03T05:19:00.743Z,77421.38
2022-10-03T05:21:56.613Z,77409.44
2022-10-03T05:24:45.283Z,77421.38
2022-10-03T05:27:26.928Z,77417.41
2022-10-03T05:30:02.907Z,77429.31
2022-10-03T05:32:51.084Z,77419.38
2022-10-03T05:35:41.578Z,77431.31
2022-10-03T05:38:21.946Z,77431.31
2022-10-03T05:41:11.455Z,77449.19
2022-10-03T05:44:02.991Z,77459.13
2022-10-03T05:46:52.363Z,77447.22
2022-10-03T05:49:28.084Z,77463.13
2022-10-03T05:52:32.754Z,77459.13
2022-10-03T05:55:16.698Z,77459.13
2022-10-03T05:58:05.353Z,77445.22
2022-10-03T06:01:00.176Z,77455.16
2022-10-03T06:03:49.258Z,77453.19
2022-10-03T06:06:34.759Z,77441.25
2022-10-03T06:09:37.651Z,77449.19
2022-10-03T06:12:40.443Z,77447.22
2022-10-03T06:15:54.641Z,77449.19
2022-10-03T06:18:57.613Z,77451.19
2022-10-03T06:21:32.410Z,77439.25
2022-10-03T06:24:27.895Z,77441.25
2022-10-03T06:27:00.436Z,77437.28
2022-10-03T06:30:05.626Z,77439.25
2022-10-03T06:32:56.823Z,77435.28
2022-10-03T06:36:07.870Z,77449.19
2022-10-03T06:38:44.751Z,77463.13
2022-10-03T06:41:29.940Z,77479.03
2022-10-03T06:44:13.714Z,77484.97
2022-10-03T06:47:03.919Z,77475.03
2022-10-03T06:49:57.618Z,77455.16
2022-10-03T06:52:52.024Z,77467.09
2022-10-03T06:55:27.940Z,77451.19
2022-10-03T06:58:27.417Z,77445.22
2022-10-03T07:01:04.979Z,77451.19
2022-10-03T07:03:49.930Z,77451.19
2022-10-03T07:06:50.134Z,77465.09
2022-10-03T07:09:29.755Z,77457.16
2022-10-03T07:12:28.064Z,77455.16
2022-10-03T07:15:11.928Z,77465.09
2022-10-03T07:17:39.100Z,77477.03
2022-10-03T07:20:26.948Z,77463.13
2022-10-03T07:23:13.205Z,77453.19
2022-10-03T07:26:03.563Z,77449.19
2022-10-03T07:28:52.102Z,77441.25
2022-10-03T07:31:57.132Z,77421.38
2022-10-03T07:34:48.258Z,77421.38
2022-10-03T07:37:49.214Z,77425.34
2022-10-03T07:40:30.750Z,77423.38
2022-10-03T07:43:40.550Z,77417.41
2022-10-03T07:46:33.177Z,77437.28
2022-10-03T07:49:09.388Z,77425.34
2022-10-03T07:51:45.201Z,77419.38
2022-10-03T07:54:17.780Z,77425.34
2022-10-03T07:56:44.159Z,77421.38
2022-10-03T07:59:41.756Z,77429.31
2022-10-03T08:02:39.632Z,77417.41
2022-10-03T08:05:15.187Z,77421.38
2022-10-03T08:07:47.746Z,77397.53
2022-10-03T08:10:20.603Z,77385.59
2022-10-03T08:13:12.249Z,77407.47
2022-10-03T08:15:38.718Z,77399.50
2022-10-03T08:18:29.590Z,77395.53
2022-10-03T08:21:01.743Z,77391.56
2022-10-03T08:23:34.190Z,77393.56
2022-10-03T08:26:28.680Z,77405.47
2022-10-03T08:29:10.383Z,77401.50
2022-10-03T08:31:55.261Z,77419.38
2022-10-03T08:34:40.473Z,77435.28
2022-10-03T08:37:41.286Z,77443.25
2022-10-03T08:40:41.909Z,77453.19
2022-10-03T08:43:38.603Z,77437.28
2022-10-03T08:46:33.159Z,77441.25
2022-10-03T08:49:22.192Z,77435.28
2022-10-03T08:52:01.862Z,77441.25
2022-10-03T08:55:11.303Z,77429.31
2022-10-03T08:57:56.627Z,77407.47
2022-10-03T09:01:00.743Z,77403.50
2022-10-03T09:03:52.027Z,77399.50
2022-10-03T09:07:12.263Z,77383.59
2022-10-03T09:09:54.991Z,77397.53
2022-10-03T09:13:00.194Z,77393.56
2022-10-03T09:15:26.570Z,77361.75
2022-10-03T09:18:09.130Z,77385.59
2022-10-03T09:21:09.485Z,77375.66
2022-10-03T09:23:46.834Z,77353.78
2022-10-03T09:26:29.068Z,77329.94
2022-10-03T09:29:26.920Z,77318.03
2022-10-03T09:32:12.208Z,77310.06
2022-10-03T09:34:50.144Z,77278.25
2022-10-03T09:37:38.328Z,77274.28
2022-10-03T09:40:13.958Z,77272.31
2022-10-03T09:43:07.379Z,77278.25
2022-10-03T09:45:55.155Z,77248.44
2022-10-03T09:48:30.159Z,77248.44
2022-10-03T09:51:16.974Z,77262.38
2022-10-03T09:54:11.041Z,77282.25
2022-10-03T09:57:03.154Z,77254.41
2022-10-03T09:59:48.305Z,77264.34
2022-10-03T10:02:52.774Z,77262.38
2022-10-03T10:05:48.196Z,77246.47
2022-10-03T10:08:46.175Z,77250.44
2022-10-03T10:11:57.223Z,77232.56
2022-10-03T10:14:39.101Z,77176.91
2022-10-03T10:17:45.086Z,77163.00
2022-10-03T10:20:39.550Z,77163.00
2022-10-03T10:23:33.971Z,77192.81
2022-10-03T10:26:37.979Z,77168.94
2022-10-03T10:29:25.900Z,77176.91
2022-10-03T10:32:10.983Z,77182.88
2022-10-03T10:35:15.185Z,77164.97
2022-10-03T10:38:13.531Z,77182.88
2022-10-03T10:41:24.000Z,77170.94
2022-10-03T10:43:59.540Z,77159.00
2022-10-03T10:46:42.699Z,77178.88
2022-10-03T10:49:32.019Z,77196.78
2022-10-03T10:52:21.219Z,77182.88
2022-10-03T10:55:22.691Z,77188.81
2022-10-03T10:58:05.866Z,77180.88
2022-10-03T11:00:56.950Z,77176.91
2022-10-03T11:03:46.638Z,77155.03
2022-10-03T11:06:53.462Z,77145.09
2022-10-03T11:09:34.464Z,77125.22
2022-10-03T11:12:25.731Z,77105.34
2022-10-03T11:15:29.658Z,77109.31
2022-10-03T11:18:30.190Z,77103.38
2022-10-03T11:21:18.584Z,77103.38
2022-10-03T11:24:03.236Z,77075.53
2022-10-03T11:27:07.939Z,77051.69
2022-10-03T11:29:34.471Z,77043.75
2022-10-03T11:32:31.911Z,77055.66
2022-10-03T11:35:36.737Z,77015.91
2022-10-03T11:38:08.084Z,77041.75
2022-10-03T11:40:59.614Z,77055.66
2022-10-03T11:44:07.324Z,77093.44
2022-10-03T11:46:58.737Z,77091.44
2022-10-03T11:49:51.261Z,77075.53
2022-10-03T11:52:36.630Z,77049.69
2022-10-03T11:55:34.494Z,77004.00
2022-10-03T11:58:20.819Z,77013.94
2022-10-03T12:01:01.976Z,77009.94
2022-10-03T12:03:35.774Z,77035.78
2022-10-03T12:06:43.699Z,77059.63
2022-10-03T12:09:43.924Z,77059.63
2022-10-03T12:12:34.534Z,77067.59
2022-10-03T12:15:34.565Z,77055.66
2022-10-03T12:18:10.262Z,77049.69
2022-10-03T12:21:07.510Z,77035.78
2022-10-03T12:23:59.625Z,77061.63
2022-10-03T12:26:43.345Z,77063.63
2022-10-03T12:29:13.589Z,77061.63
2022-10-03T12:32:05.973Z,77071.56
2022-10-03T12:34:38.619Z,77087.47
2022-10-03T12:37:31.212Z,77091.44
2022-10-03T12:40:28.264Z,77135.16
2022-10-03T12:43:04.859Z,77121.25
2022-10-03T12:45:53.359Z,77111.31
2022-10-03T12:48:26.948Z,77089.44
2022-10-03T12:51:20.732Z,77077.53
2022-10-03T12:54:22.458Z,77103.38
2022-10-03T12:57:12.505Z,77109.31
2022-10-03T13:00:04.655Z,77099.38
2022-10-03T13:02:36.187Z,77159.00
2022-10-03T13:05:21.935Z,77147.09
2022-10-03T13:08:03.800Z,77159.00
2022-10-03T13:10:33.250Z,77135.16
2022-10-03T13:13:09.023Z,77141.13
2022-10-03T13:15:49.436Z,77129.19
2022-10-03T13:18:26.928Z,77125.22
2022-10-03T13:21:04.598Z,77107.34
2022-10-03T13:23:41.259Z,77091.44
2022-10-03T13:26:17.292Z,77067.59
2022-10-03T13:28:53.788Z,77051.69
2022-10-03T13:31:25.406Z,77061.63
2022-10-03T13:33:56.107Z,77049.69
2022-10-03T13:36:44.858Z,77043.75
2022-10-03T13:39:26.027Z,77039.75
2022-10-03T13:42:04.663Z,77035.78
2022-10-03T13:44:54.431Z,77049.69
2022-10-03T13:47:29.827Z,77051.69
2022-10-03T13:50:01.509Z,77045.72
2022-10-03T13:52:33.985Z,77039.75
2022-10-03T13:55:18.697Z,77035.78
2022-10-03T13:57:51.413Z,77027.84
2022-10-03T14:00:22.924Z,77033.81
2022-10-03T14:03:04.896Z,77053.69
2022-10-03T14:05:59.318Z,77051.69
2022-10-03T14:08:28.823Z,77059.63
2022-10-03T14:11:03.427Z,77069.56
2022-10-03T14:13:57.672Z,77071.56
2022-10-03T14:16:34.119Z,77083.50
2022-10-03T14:19:33.735Z,77079.50
2022-10-03T14:22:11.296Z,77069.56
2022-10-03T14:24:56.542Z,77059.63
2022-10-03T14:27:34.453Z,77057.66
2022-10-03T14:30:25.286Z,77051.69
2022-10-03T14:33:23.707Z,77047.72
2022-10-03T14:36:18.517Z,77049.69
2022-10-03T14:39:12.670Z,77015.91
2022-10-03T14:42:12.730Z,77013.94
2022-10-03T14:44:44.452Z,77009.94
2022-10-03T14:47:14.447Z,77005.97
2022-10-03T14:49:58.417Z,77017.91
2022-10-03T14:52:44.694Z,77037.78
2022-10-03T14:55:31.861Z,77031.81
2022-10-03T14:58:11.193Z,77005.97
2022-10-03T15:00:45.802Z,76948.34
2022-10-03T15:03:18.409Z,76950.31
2022-10-03T15:05:57.062Z,76978.16
2022-10-03T15:08:30.140Z,77002.00
2022-10-03T15:10:57.150Z,77039.75
2022-10-03T15:13:27.356Z,77031.81
2022-10-03T15:16:17.808Z,77031.81
2022-10-03T15:18:53.591Z,77033.81
2022-10-03T15:21:21.219Z,77053.69
2022-10-03T15:24:01.256Z,77065.59
2022-10-03T15:26:32.117Z,77085.47
2022-10-03T15:29:02.662Z,77087.47
2022-10-03T15:31:45.671Z,77103.38
2022-10-03T15:34:21.577Z,77117.28
2022-10-03T15:36:51.109Z,77115.28
2022-10-03T15:39:27.835Z,77121.25
2022-10-03T15:42:20.464Z,77125.22
2022-10-03T15:44:54.635Z,77127.22
2022-10-03T15:47:30.977Z,77125.22
2022-10-03T15:50:02.508Z,77131.19
2022-10-03T15:52:41.603Z,77131.19
2022-10-03T15:55:34.475Z,77133.19
2022-10-03T15:58:11.384Z,77141.13
2022-10-03T16:00:38.368Z,77141.13
2022-10-03T16:03:17.567Z,77147.09
2022-10-03T16:06:07.851Z,77155.03
2022-10-03T16:08:48.012Z,77155.03
2022-10-03T16:11:22.220Z,77157.03
2022-10-03T16:14:18.083Z,77153.06
2022-10-03T16:16:51.684Z,77161.00
2022-10-03T16:19:42.489Z,77170.94
2022-10-03T16:22:36.883Z,77166.97
2022-10-03T16:25:17.183Z,77168.94
2022-10-03T16:27:52.776Z,77182.88
2022-10-03T16:30:26.627Z,77176.91
2022-10-03T16:33:12.246Z,77182.88
2022-10-03T16:35:55.818Z,77170.94
2022-10-03T16:38:31.997Z,77174.91
2022-10-03T16:41:03.745Z,77180.88
2022-10-03T16:43:33.148Z,77188.81
2022-10-03T16:46:04.414Z,77200.75
2022-10-03T16:48:52.749Z,77194.78
2022-10-03T16:51:23.415Z,77186.84
2022-10-03T16:53:53.431Z,77194.78
2022-10-03T16:56:26.126Z,77202.75
2022-10-03T16:59:00.408Z,77202.75
2022-10-03T17:01:32.704Z,77202.75
2022-10-03T17:04:24.376Z,77202.75
2022-10-03T17:06:55.294Z,77206.72
2022-10-03T17:09:43.558Z,77212.69
2022-10-03T17:12:22.195Z,77204.72
2022-10-03T17:14:51.697Z,77214.66
2022-10-03T17:17:29.480Z,77212.69
2022-10-03T17:20:01.314Z,77220.63
2022-10-03T17:22:36.637Z,77220.63
2022-10-03T17:25:30.151Z,77218.63
2022-10-03T17:27:58.163Z,77234.53
2022-10-03T17:30:31.775Z,77234.53
2022-10-03T17:33:23.400Z,77228.56
2022-10-03T17:36:10.215Z,77238.50
2022-10-03T17:39:01.431Z,77242.50
2022-10-03T17:41:41.452Z,77248.44
2022-10-03T17:44:14.568Z,77262.38
2022-10-03T17:47:06.409Z,77268.31
2022-10-03T17:50:02.274Z,77270.31
2022-10-03T17:52:30.324Z,77270.31
2022-10-03T17:55:02.563Z,77284.22
2022-10-03T17:57:44.993Z,77286.22
2022-10-03T18:00:22.564Z,77284.22
2022-10-03T18:03:10.770Z,77282.25
2022-10-03T18:05:43.844Z,77278.25
2022-10-03T18:08:19.976Z,77290.19
2022-10-03T18:10:50.732Z,77290.19
2022-10-03T18:13:23.547Z,77304.09
2022-10-03T18:15:59.232Z,77310.06
2022-10-03T18:18:34.311Z,77318.03
2022-10-03T18:21:15.251Z,77323.97
2022-10-03T18:23:55.101Z,77318.03
2022-10-03T18:26:31.251Z,77320.00
2022-10-03T18:29:14.484Z,77312.06
2022-10-03T18:31:45.930Z,77323.97
2022-10-03T18:34:24.351Z,77322.00
2022-10-03T18:36:54.497Z,77318.03
2022-10-03T18:39:26.892Z,77327.97
2022-10-03T18:42:00.725Z,77318.03
2022-10-03T18:44:30.968Z,77322.00
2022-10-03T18:47:36.399Z,77316.03
2022-10-03T18:50:05.393Z,77318.03
2022-10-03T18:52:42.816Z,77318.03
2022-10-03T18:55:29.544Z,77298.13
2022-10-03T18:58:14.292Z,77306.09
2022-10-03T19:00:52.145Z,77300.13
2022-10-03T19:03:24.946Z,77304.09
2022-10-03T19:05:58.453Z,77325.97
2022-10-03T19:08:36.067Z,77325.97
2022-10-03T19:11:29.420Z,77333.91
2022-10-03T19:14:04.876Z,77337.91
2022-10-03T19:17:06.800Z,77347.84
2022-10-03T19:19:43.139Z,77359.75
2022-10-03T19:22:13.821Z,77353.78
2022-10-03T19:24:57.954Z,77357.78
2022-10-03T19:27:40.056Z,77351.81
2022-10-03T19:30:08.305Z,77369.69
2022-10-03T19:33:01.187Z,77365.72
2022-10-03T19:35:30.026Z,77371.69
2022-10-03T19:38:13.677Z,77371.69
2022-10-03T19:41:06.802Z,77371.69
2022-10-03T19:43:49.556Z,77381.63
2022-10-03T19:47:05.462Z,77367.72
2022-10-03T19:49:47.221Z,77369.69
2022-10-03T19:52:27.983Z,77363.72
2022-10-03T19:55:13.262Z,77367.72
2022-10-03T19:57:49.211Z,77379.63
2022-10-03T20:00:15.570Z,77379.63
2022-10-03T20:02:43.764Z,77379.63
2022-10-03T20:05:19.016Z,77393.56
2022-10-03T20:07:49.523Z,77397.53
2022-10-03T20:10:51.747Z,77397.53
2022-10-03T20:13:18.417Z,77399.50
2022-10-03T20:15:48.160Z,77397.53
2022-10-03T20:18:22.144Z,77403.50
2022-10-03T20:20:54.669Z,77405.47
2022-10-03T20:23:24.816Z,77407.47
2022-10-03T20:25:56.410Z,77403.50
2022-10-03T20:28:43.680Z,77401.50
2022-10-03T20:31:11.359Z,77401.50
2022-10-03T20:33:38.119Z,77413.44
2022-10-03T20:36:13.914Z,77405.47
2022-10-03T20:39:19.743Z,77393.56
2022-10-03T20:41:55.495Z,77401.50
2022-10-03T20:44:34.708Z,77385.59
2022-10-03T20:47:16.283Z,77391.56
2022-10-03T20:49:59.357Z,77377.66
2022-10-03T20:52:26.654Z,77401.50
2022-10-03T20:54:59.224Z,77381.63
2022-10-03T20:57:30.697Z,77375.66
2022-10-03T21:00:12.959Z,77371.69
2022-10-03T21:02:54.545Z,77367.72
2022-10-03T21:05:46.295Z,77363.72
2022-10-03T21:08:22.649Z,77367.72
2022-10-03T21:10:58.404Z,77349.81
2022-10-03T21:13:32.984Z,77355.78
2022-10-03T21:16:02.328Z,77361.75
2022-10-03T21:18:40.831Z,77343.84
2022-10-03T21:21:28.018Z,77355.78
2022-10-03T21:24:04.119Z,77359.75
2022-10-03T21:26:33.475Z,77349.81
2022-10-03T21:29:24.952Z,77359.75
2022-10-03T21:32:23.975Z,77353.78
2022-10-03T21:35:15.629Z,77349.81
2022-10-03T21:38:02.659Z,77355.78
2022-10-03T21:40:46.979Z,77373.66
2022-10-03T21:43:34.834Z,77361.75
2022-10-03T21:46:10.342Z,77363.72
2022-10-03T21:48:55.544Z,77357.78
2022-10-03T21:51:47.780Z,77357.78
2022-10-03T21:54:42.156Z,77359.75
2022-10-03T21:57:27.407Z,77345.84
2022-10-03T21:59:56.912Z,77359.75
2022-10-03T22:02:43.755Z,77379.63
2022-10-03T22:05:13.166Z,77367.72
2022-10-03T22:07:42.539Z,77361.75
2022-10-03T22:10:21.915Z,77361.75
2022-10-03T22:13:07.698Z,77365.72
2022-10-03T22:15:40.098Z,77359.75
2022-10-03T22:18:19.452Z,77353.78
2022-10-03T22:21:26.216Z,77339.88
2022-10-03T22:24:25.551Z,77355.78
2022-10-03T22:27:00.509Z,77361.75
2022-10-03T22:29:56.941Z,77343.84
2022-10-03T22:32:53.995Z,77355.78
2022-10-03T22:35:36.471Z,77343.84
2022-10-03T22:38:03.574Z,77341.88
2022-10-03T22:40:31.193Z,77351.81
2022-10-03T22:43:03.315Z,77347.84
2022-10-03T22:45:32.968Z,77337.91
2022-10-03T22:48:04.277Z,77337.91
2022-10-03T22:50:35.035Z,77329.94
2022-10-03T22:53:03.752Z,77329.94
2022-10-03T22:55:31.614Z,77325.97
2022-10-03T22:58:00.789Z,77333.91
2022-10-03T23:00:33.268Z,77341.88
2022-10-03T23:03:12.812Z,77335.91
2022-10-03T23:05:53.751Z,77329.94
2022-10-03T23:08:20.170Z,77318.03
2022-10-03T23:10:46.944Z,77320.00
2022-10-03T23:13:37.628Z,77323.97
2022-10-03T23:16:41.078Z,77322.00
2022-10-03T23:19:30.274Z,77331.94
2022-10-03T23:21:59.508Z,77329.94
2022-10-03T23:24:35.811Z,77329.94
2022-10-03T23:27:22.896Z,77325.97
2022-10-03T23:30:11.353Z,77333.91
2022-10-03T23:32:46.968Z,77316.03
2022-10-03T23:35:31.719Z,77323.97
2022-10-03T23:38:01.955Z,77333.91
2022-10-03T23:40:39.828Z,77333.91
2022-10-03T23:43:28.175Z,77331.94
2022-10-03T23:46:00.261Z,77318.03
2022-10-03T23:48:30.133Z,77341.88
2022-10-03T23:51:03.695Z,77345.84
2022-10-03T23:53:41.880Z,77327.97
2022-10-03T23:56:28.870Z,77323.97
2022-10-03T23:58:55.295Z,77337.91
